sensor_id;sensor_type;location;lat;lon;timestamp;pressure;altitude;pressure_sealevel;temperature;humidity
39999;BME280;25696;42.646;23.368;2023-02-02T00:02:01;94571.09;;;6.57;48.22
39999;BME280;25696;42.646;23.368;2023-02-02T00:04:29;94571.03;;;6.50;47.28
39999;BME280;25696;42.646;23.368;2023-02-02T00:06:55;94572.97;;;6.56;46.74
39999;BME280;25696;42.646;23.368;2023-02-02T00:09:28;94578.59;;;6.61;46.46
39999;BME280;25696;42.646;23.368;2023-02-02T00:11:54;94575.84;;;6.69;46.50
39999;BME280;25696;42.646;23.368;2023-02-02T00:14:20;94572.19;;;6.70;46.75
39999;BME280;25696;42.646;23.368;2023-02-02T00:16:47;94562.69;;;6.82;46.25
39999;BME280;25696;42.646;23.368;2023-02-02T00:19:15;94569.19;;;6.65;46.69
39999;BME280;25696;42.646;23.368;2023-02-02T00:21:42;94560.91;;;6.60;46.53
39999;BME280;25696;42.646;23.368;2023-02-02T00:24:09;94568.09;;;6.60;46.72
39999;BME280;25696;42.646;23.368;2023-02-02T00:26:35;94571.22;;;6.63;46.49
39999;BME280;25696;42.646;23.368;2023-02-02T00:29:01;94566.25;;;6.60;46.24
39999;BME280;25696;42.646;23.368;2023-02-02T00:31:27;94565.88;;;6.63;46.41
39999;BME280;25696;42.646;23.368;2023-02-02T00:33:52;94577.94;;;6.59;46.08
39999;BME280;25696;42.646;23.368;2023-02-02T00:36:19;94579.38;;;6.70;46.07
39999;BME280;25696;42.646;23.368;2023-02-02T00:38:46;94577.81;;;6.75;45.91
39999;BME280;25696;42.646;23.368;2023-02-02T00:41:12;94583.22;;;6.67;46.87
39999;BME280;25696;42.646;23.368;2023-02-02T00:43:37;94589.31;;;6.61;46.89
39999;BME280;25696;42.646;23.368;2023-02-02T00:46:03;94594.78;;;6.45;47.15
39999;BME280;25696;42.646;23.368;2023-02-02T00:48:28;94606.06;;;6.32;47.79
39999;BME280;25696;42.646;23.368;2023-02-02T00:50:54;94593.94;;;6.44;47.11
39999;BME280;25696;42.646;23.368;2023-02-02T00:53:19;94594.47;;;6.40;47.46
39999;BME280;25696;42.646;23.368;2023-02-02T00:55:45;94582.31;;;6.37;48.31
39999;BME280;25696;42.646;23.368;2023-02-02T00:58:10;94591.22;;;6.30;48.41
39999;BME280;25696;42.646;23.368;2023-02-02T01:00:35;94582.00;;;6.10;50.52
39999;BME280;25696;42.646;23.368;2023-02-02T01:03:02;94579.06;;;5.97;51.17
39999;BME280;25696;42.646;23.368;2023-02-02T01:05:33;94581.69;;;6.05;51.03
39999;BME280;25696;42.646;23.368;2023-02-02T01:07:59;94576.34;;;6.05;50.76
39999;BME280;25696;42.646;23.368;2023-02-02T01:10:24;94568.22;;;5.98;51.36
39999;BME280;25696;42.646;23.368;2023-02-02T01:12:50;94568.50;;;6.03;51.82
39999;BME280;25696;42.646;23.368;2023-02-02T01:15:15;94569.72;;;5.93;52.26
39999;BME280;25696;42.646;23.368;2023-02-02T01:17:41;94567.66;;;6.03;52.29
39999;BME280;25696;42.646;23.368;2023-02-02T01:20:09;94560.06;;;5.92;52.96
39999;BME280;25696;42.646;23.368;2023-02-02T01:22:35;94558.50;;;5.97;53.20
39999;BME280;25696;42.646;23.368;2023-02-02T01:25:02;94550.63;;;5.73;53.64
39999;BME280;25696;42.646;23.368;2023-02-02T01:27:28;94562.22;;;5.88;53.47
39999;BME280;25696;42.646;23.368;2023-02-02T01:29:53;94564.13;;;5.80;53.95
39999;BME280;25696;42.646;23.368;2023-02-02T01:32:19;94557.09;;;5.79;54.24
39999;BME280;25696;42.646;23.368;2023-02-02T01:34:44;94548.75;;;5.73;54.37
39999;BME280;25696;42.646;23.368;2023-02-02T01:37:10;94552.69;;;5.94;54.06
39999;BME280;25696;42.646;23.368;2023-02-02T01:39:35;94539.03;;;5.89;54.04
39999;BME280;25696;42.646;23.368;2023-02-02T01:42:01;94541.88;;;5.87;54.01
39999;BME280;25696;42.646;23.368;2023-02-02T01:47:10;94541.03;;;5.87;54.21
39999;BME280;25696;42.646;23.368;2023-02-02T01:49:36;94535.69;;;5.87;53.67
39999;BME280;25696;42.646;23.368;2023-02-02T01:52:03;94531.22;;;5.79;53.92
39999;BME280;25696;42.646;23.368;2023-02-02T01:56:56;94533.38;;;5.84;53.40
39999;BME280;25696;42.646;23.368;2023-02-02T01:59:23;94524.03;;;5.80;54.12
39999;BME280;25696;42.646;23.368;2023-02-02T02:01:49;94519.28;;;5.59;54.33
39999;BME280;25696;42.646;23.368;2023-02-02T02:04:15;94518.47;;;5.58;54.59
39999;BME280;25696;42.646;23.368;2023-02-02T02:06:40;94520.88;;;5.45;54.93
39999;BME280;25696;42.646;23.368;2023-02-02T02:09:06;94520.22;;;5.43;55.26
39999;BME280;25696;42.646;23.368;2023-02-02T02:11:33;94521.19;;;5.42;55.27
39999;BME280;25696;42.646;23.368;2023-02-02T02:14:02;94522.44;;;5.32;56.00
39999;BME280;25696;42.646;23.368;2023-02-02T02:36:00;94523.63;;;4.74;56.50
39999;BME280;25696;42.646;23.368;2023-02-02T02:38:34;94527.44;;;4.72;56.49
39999;BME280;25696;42.646;23.368;2023-02-02T02:41:02;94520.09;;;4.82;55.81
39999;BME280;25696;42.646;23.368;2023-02-02T02:43:30;94519.94;;;4.83;55.97
39999;BME280;25696;42.646;23.368;2023-02-02T02:45:58;94521.56;;;5.01;55.34
39999;BME280;25696;42.646;23.368;2023-02-02T02:48:23;94531.72;;;4.97;55.71
39999;BME280;25696;42.646;23.368;2023-02-02T02:50:49;94522.44;;;4.85;55.53
39999;BME280;25696;42.646;23.368;2023-02-02T02:53:15;94523.75;;;4.89;55.50
39999;BME280;25696;42.646;23.368;2023-02-02T03:01:06;94518.56;;;4.96;54.97
39999;BME280;25696;42.646;23.368;2023-02-02T03:06:15;94516.41;;;4.91;55.02
39999;BME280;25696;42.646;23.368;2023-02-02T03:08:46;94515.03;;;5.03;54.48
39999;BME280;25696;42.646;23.368;2023-02-02T03:11:13;94519.19;;;5.06;54.15
39999;BME280;25696;42.646;23.368;2023-02-02T03:13:40;94521.78;;;5.22;54.27
39999;BME280;25696;42.646;23.368;2023-02-02T03:16:06;94523.97;;;5.18;54.85
39999;BME280;25696;42.646;23.368;2023-02-02T03:18:32;94523.34;;;5.08;54.66
39999;BME280;25696;42.646;23.368;2023-02-02T03:20:58;94522.66;;;5.14;54.90
39999;BME280;25696;42.646;23.368;2023-02-02T03:23:23;94523.34;;;5.08;55.34
39999;BME280;25696;42.646;23.368;2023-02-02T03:25:49;94516.34;;;5.07;55.66
39999;BME280;25696;42.646;23.368;2023-02-02T03:28:15;94518.00;;;5.16;55.46
39999;BME280;25696;42.646;23.368;2023-02-02T03:30:41;94510.03;;;5.00;55.54
39999;BME280;25696;42.646;23.368;2023-02-02T03:33:07;94517.69;;;5.03;55.73
39999;BME280;25696;42.646;23.368;2023-02-02T03:35:33;94515.63;;;4.74;56.12
39999;BME280;25696;42.646;23.368;2023-02-02T03:37:58;94519.41;;;4.80;56.58
39999;BME280;25696;42.646;23.368;2023-02-02T03:40:24;94519.09;;;4.83;55.73
39999;BME280;25696;42.646;23.368;2023-02-02T03:42:50;94518.91;;;5.01;55.55
39999;BME280;25696;42.646;23.368;2023-02-02T03:45:15;94511.59;;;4.78;55.54
39999;BME280;25696;42.646;23.368;2023-02-02T03:47:41;94515.78;;;4.81;55.69
39999;BME280;25696;42.646;23.368;2023-02-02T03:50:06;94518.25;;;4.82;56.69
39999;BME280;25696;42.646;23.368;2023-02-02T03:52:32;94517.47;;;4.66;56.91
39999;BME280;25696;42.646;23.368;2023-02-02T03:54:58;94524.84;;;4.48;56.58
39999;BME280;25696;42.646;23.368;2023-02-02T03:57:24;94525.47;;;4.58;57.48
39999;BME280;25696;42.646;23.368;2023-02-02T03:59:49;94528.47;;;4.47;58.32
39999;BME280;25696;42.646;23.368;2023-02-02T04:02:14;94534.84;;;4.38;59.21
39999;BME280;25696;42.646;23.368;2023-02-02T04:04:39;94520.69;;;4.21;60.58
39999;BME280;25696;42.646;23.368;2023-02-02T04:07:05;94527.84;;;4.21;60.31
39999;BME280;25696;42.646;23.368;2023-02-02T04:09:30;94536.00;;;4.27;60.00
39999;BME280;25696;42.646;23.368;2023-02-02T04:11:55;94532.84;;;4.32;60.71
39999;BME280;25696;42.646;23.368;2023-02-02T04:14:21;94526.69;;;4.23;60.93
39999;BME280;25696;42.646;23.368;2023-02-02T04:16:46;94534.50;;;4.25;61.31
39999;BME280;25696;42.646;23.368;2023-02-02T04:19:11;94537.00;;;4.10;61.88
39999;BME280;25696;42.646;23.368;2023-02-02T04:21:38;94549.47;;;4.01;62.65
39999;BME280;25696;42.646;23.368;2023-02-02T04:24:04;94541.31;;;3.87;63.11
39999;BME280;25696;42.646;23.368;2023-02-02T04:26:30;94539.66;;;3.86;63.26
39999;BME280;25696;42.646;23.368;2023-02-02T04:28:55;94537.84;;;3.94;62.79
39999;BME280;25696;42.646;23.368;2023-02-02T04:31:20;94545.34;;;4.07;61.98
39999;BME280;25696;42.646;23.368;2023-02-02T04:33:46;94543.50;;;4.07;61.80
39999;BME280;25696;42.646;23.368;2023-02-02T04:36:11;94556.16;;;4.05;61.92
39999;BME280;25696;42.646;23.368;2023-02-02T04:38:37;94547.50;;;4.03;61.69
39999;BME280;25696;42.646;23.368;2023-02-02T04:41:09;94537.50;;;3.97;62.28
39999;BME280;25696;42.646;23.368;2023-02-02T04:43:36;94540.16;;;3.97;61.93
39999;BME280;25696;42.646;23.368;2023-02-02T04:46:01;94545.81;;;3.86;62.04
39999;BME280;25696;42.646;23.368;2023-02-02T04:48:27;94555.09;;;3.82;62.58
39999;BME280;25696;42.646;23.368;2023-02-02T04:50:59;94567.13;;;3.86;62.51
39999;BME280;25696;42.646;23.368;2023-02-02T04:53:24;94552.44;;;3.74;62.53
39999;BME280;25696;42.646;23.368;2023-02-02T04:55:50;94558.31;;;3.86;62.64
39999;BME280;25696;42.646;23.368;2023-02-02T04:58:15;94557.09;;;3.80;62.67
39999;BME280;25696;42.646;23.368;2023-02-02T05:00:40;94549.16;;;3.88;61.19
39999;BME280;25696;42.646;23.368;2023-02-02T05:03:06;94556.50;;;3.94;60.86
39999;BME280;25696;42.646;23.368;2023-02-02T05:05:31;94557.09;;;3.80;61.35
39999;BME280;25696;42.646;23.368;2023-02-02T05:07:56;94561.66;;;3.96;59.74
39999;BME280;25696;42.646;23.368;2023-02-02T05:10:22;94555.34;;;4.05;60.03
39999;BME280;25696;42.646;23.368;2023-02-02T05:12:47;94553.16;;;4.00;59.98
39999;BME280;25696;42.646;23.368;2023-02-02T05:15:12;94564.31;;;4.04;60.46
39999;BME280;25696;42.646;23.368;2023-02-02T05:17:38;94558.50;;;4.08;60.69
39999;BME280;25696;42.646;23.368;2023-02-02T05:20:03;94539.13;;;3.82;58.83
39999;BME280;25696;42.646;23.368;2023-02-02T05:22:28;94541.50;;;3.93;55.78
39999;BME280;25696;42.646;23.368;2023-02-02T05:24:54;94554.16;;;4.07;56.73
39999;BME280;25696;42.646;23.368;2023-02-02T05:27:19;94549.47;;;4.01;58.63
39999;BME280;25696;42.646;23.368;2023-02-02T05:29:45;94545.00;;;4.18;58.39
39999;BME280;25696;42.646;23.368;2023-02-02T05:32:11;94545.34;;;4.15;58.29
39999;BME280;25696;42.646;23.368;2023-02-02T05:34:36;94543.66;;;4.30;57.58
39999;BME280;25696;42.646;23.368;2023-02-02T05:37:01;94546.84;;;4.26;57.18
39999;BME280;25696;42.646;23.368;2023-02-02T05:39:27;94552.19;;;4.26;57.79
39999;BME280;25696;42.646;23.368;2023-02-02T05:41:52;94560.50;;;3.98;59.23
39999;BME280;25696;42.646;23.368;2023-02-02T05:44:17;94556.81;;;4.07;58.65
39999;BME280;25696;42.646;23.368;2023-02-02T05:46:42;94567.81;;;3.96;59.23
39999;BME280;25696;42.646;23.368;2023-02-02T05:49:11;94573.28;;;3.87;59.52
39999;BME280;25696;42.646;23.368;2023-02-02T05:51:38;94570.09;;;3.75;61.62
39999;BME280;25696;42.646;23.368;2023-02-02T05:54:04;94560.44;;;3.74;62.91
39999;BME280;25696;42.646;23.368;2023-02-02T05:56:30;94562.78;;;3.77;62.56
39999;BME280;25696;42.646;23.368;2023-02-02T05:58:55;94567.22;;;3.53;63.88
39999;BME280;25696;42.646;23.368;2023-02-02T06:01:21;94570.16;;;3.42;64.56
39999;BME280;25696;42.646;23.368;2023-02-02T06:03:46;94576.03;;;3.11;66.35
39999;BME280;25696;42.646;23.368;2023-02-02T06:06:12;94581.59;;;2.92;67.22
39999;BME280;25696;42.646;23.368;2023-02-02T06:08:37;94580.56;;;2.93;67.30
39999;BME280;25696;42.646;23.368;2023-02-02T06:11:14;94576.00;;;2.78;68.29
39999;BME280;25696;42.646;23.368;2023-02-02T06:13:40;94573.13;;;2.97;67.63
39999;BME280;25696;42.646;23.368;2023-02-02T06:16:06;94587.09;;;2.47;69.60
39999;BME280;25696;42.646;23.368;2023-02-02T06:18:33;94587.47;;;2.53;68.89
39999;BME280;25696;42.646;23.368;2023-02-02T06:21:00;94582.97;;;2.27;70.32
39999;BME280;25696;42.646;23.368;2023-02-02T06:23:26;94582.41;;;2.41;70.30
39999;BME280;25696;42.646;23.368;2023-02-02T06:25:52;94605.38;;;2.07;71.98
39999;BME280;25696;42.646;23.368;2023-02-02T06:28:17;94611.75;;;1.97;72.23
39999;BME280;25696;42.646;23.368;2023-02-02T06:30:43;94618.91;;;2.14;72.36
39999;BME280;25696;42.646;23.368;2023-02-02T06:33:08;94625.25;;;1.68;73.58
39999;BME280;25696;42.646;23.368;2023-02-02T06:35:33;94623.47;;;1.59;74.93
39999;BME280;25696;42.646;23.368;2023-02-02T06:37:59;94628.75;;;1.86;74.28
39999;BME280;25696;42.646;23.368;2023-02-02T06:40:27;94616.50;;;1.76;73.94
39999;BME280;25696;42.646;23.368;2023-02-02T06:43:01;94623.72;;;1.83;73.35
39999;BME280;25696;42.646;23.368;2023-02-02T06:45:30;94624.09;;;2.06;72.93
39999;BME280;25696;42.646;23.368;2023-02-02T06:47:59;94642.41;;;2.09;72.91
39999;BME280;25696;42.646;23.368;2023-02-02T06:50:27;94620.09;;;2.02;72.87
39999;BME280;25696;42.646;23.368;2023-02-02T06:56:22;94613.25;;;2.34;72.00
39999;BME280;25696;42.646;23.368;2023-02-02T07:04:39;94617.84;;;2.50;70.89
39999;BME280;25696;42.646;23.368;2023-02-02T07:07:05;94647.44;;;2.12;72.14
39999;BME280;25696;42.646;23.368;2023-02-02T07:09:34;94645.72;;;2.64;70.44
39999;BME280;25696;42.646;23.368;2023-02-02T07:12:00;94638.84;;;2.79;69.47
39999;BME280;25696;42.646;23.368;2023-02-02T07:14:25;94628.53;;;2.76;66.24
39999;BME280;25696;42.646;23.368;2023-02-02T07:16:51;94628.22;;;3.38;63.04
39999;BME280;25696;42.646;23.368;2023-02-02T07:19:17;94620.69;;;3.00;67.23
39999;BME280;25696;42.646;23.368;2023-02-02T07:21:42;94629.75;;;3.15;67.54
39999;BME280;25696;42.646;23.368;2023-02-02T07:24:08;94640.19;;;2.83;69.13
39999;BME280;25696;42.646;23.368;2023-02-02T07:26:34;94646.88;;;2.61;70.35
39999;BME280;25696;42.646;23.368;2023-02-02T07:29:00;94653.75;;;2.72;69.79
39999;BME280;25696;42.646;23.368;2023-02-02T07:31:25;94638.00;;;2.17;71.82
39999;BME280;25696;42.646;23.368;2023-02-02T07:33:54;94640.31;;;2.56;71.74
39999;BME280;25696;42.646;23.368;2023-02-02T07:36:20;94655.28;;;2.57;71.63
39999;BME280;25696;42.646;23.368;2023-02-02T07:38:47;94639.50;;;2.37;71.59
39999;BME280;25696;42.646;23.368;2023-02-02T07:41:13;94654.94;;;2.34;72.09
39999;BME280;25696;42.646;23.368;2023-02-02T07:43:38;94646.78;;;2.96;69.43
39999;BME280;25696;42.646;23.368;2023-02-02T07:46:05;94645.81;;;3.65;66.67
39999;BME280;25696;42.646;23.368;2023-02-02T07:48:33;94640.56;;;3.97;65.04
39999;BME280;25696;42.646;23.368;2023-02-02T07:50:59;94628.63;;;4.17;63.92
39999;BME280;25696;42.646;23.368;2023-02-02T07:53:26;94621.13;;;4.13;64.64
39999;BME280;25696;42.646;23.368;2023-02-02T07:55:52;94611.31;;;4.61;64.17
39999;BME280;25696;42.646;23.368;2023-02-02T07:58:17;94602.63;;;5.46;60.19
39999;BME280;25696;42.646;23.368;2023-02-02T08:00:43;94599.41;;;5.67;59.28
39999;BME280;25696;42.646;23.368;2023-02-02T08:03:11;94597.09;;;6.25;57.72
39999;BME280;25696;42.646;23.368;2023-02-02T08:05:39;94596.56;;;7.56;54.01
39999;BME280;25696;42.646;23.368;2023-02-02T08:08:04;94579.56;;;8.92;50.47
39999;BME280;25696;42.646;23.368;2023-02-02T08:10:29;94581.84;;;10.25;46.13
39999;BME280;25696;42.646;23.368;2023-02-02T08:12:55;94582.81;;;11.70;41.88
39999;BME280;25696;42.646;23.368;2023-02-02T08:15:20;94574.66;;;12.47;40.02
39999;BME280;25696;42.646;23.368;2023-02-02T08:17:46;94555.94;;;12.01;40.34
39999;BME280;25696;42.646;23.368;2023-02-02T08:20:14;94569.94;;;11.72;41.46
39999;BME280;25696;42.646;23.368;2023-02-02T08:22:40;94579.31;;;11.23;41.91
39999;BME280;25696;42.646;23.368;2023-02-02T08:25:05;94570.50;;;10.36;43.40
39999;BME280;25696;42.646;23.368;2023-02-02T08:27:31;94569.47;;;9.90;45.08
39999;BME280;25696;42.646;23.368;2023-02-02T08:29:57;94569.81;;;8.63;47.49
39999;BME280;25696;42.646;23.368;2023-02-02T08:32:22;94570.53;;;8.00;50.08
39999;BME280;25696;42.646;23.368;2023-02-02T08:34:48;94560.69;;;8.58;49.46
39999;BME280;25696;42.646;23.368;2023-02-02T08:37:13;94567.25;;;9.32;47.33
39999;BME280;25696;42.646;23.368;2023-02-02T08:39:39;94556.78;;;10.25;45.05
39999;BME280;25696;42.646;23.368;2023-02-02T08:42:04;94558.56;;;10.65;43.87
39999;BME280;25696;42.646;23.368;2023-02-02T08:44:30;94553.69;;;10.28;44.00
39999;BME280;25696;42.646;23.368;2023-02-02T08:46:55;94568.97;;;9.73;44.89
39999;BME280;25696;42.646;23.368;2023-02-02T08:49:21;94557.91;;;8.30;48.11
39999;BME280;25696;42.646;23.368;2023-02-02T08:51:48;94566.78;;;7.80;50.03
39999;BME280;25696;42.646;23.368;2023-02-02T08:54:14;94571.28;;;6.92;53.58
39999;BME280;25696;42.646;23.368;2023-02-02T08:56:39;94558.72;;;6.78;54.79
39999;BME280;25696;42.646;23.368;2023-02-02T08:59:07;94559.19;;;6.44;55.88
39999;BME280;25696;42.646;23.368;2023-02-02T09:01:33;94559.75;;;5.87;57.28
39999;BME280;25696;42.646;23.368;2023-02-02T09:04:02;94562.69;;;5.61;59.14
39999;BME280;25696;42.646;23.368;2023-02-02T09:06:35;94573.06;;;5.17;60.58
39999;BME280;25696;42.646;23.368;2023-02-02T09:09:02;94555.88;;;5.12;61.40
39999;BME280;25696;42.646;23.368;2023-02-02T09:11:28;94559.44;;;4.96;62.11
39999;BME280;25696;42.646;23.368;2023-02-02T09:13:58;94560.13;;;4.74;62.98
39999;BME280;25696;42.646;23.368;2023-02-02T09:16:25;94550.78;;;4.78;62.50
39999;BME280;25696;42.646;23.368;2023-02-02T09:18:51;94548.09;;;4.78;62.73
39999;BME280;25696;42.646;23.368;2023-02-02T09:21:17;94541.44;;;4.74;62.93
39999;BME280;25696;42.646;23.368;2023-02-02T09:23:44;94537.22;;;5.04;62.78
39999;BME280;25696;42.646;23.368;2023-02-02T09:26:16;94537.53;;;5.09;61.99
39999;BME280;25696;42.646;23.368;2023-02-02T09:28:45;94542.00;;;5.16;61.29
39999;BME280;25696;42.646;23.368;2023-02-02T09:31:10;94546.50;;;5.16;61.29
39999;BME280;25696;42.646;23.368;2023-02-02T09:33:36;94542.69;;;5.10;62.04
39999;BME280;25696;42.646;23.368;2023-02-02T09:36:08;94537.13;;;5.36;61.69
39999;BME280;25696;42.646;23.368;2023-02-02T09:38:34;94540.44;;;5.38;61.03
39999;BME280;25696;42.646;23.368;2023-02-02T09:41:00;94538.53;;;5.46;60.97
39999;BME280;25696;42.646;23.368;2023-02-02T09:49:33;94521.72;;;6.44;59.21
39999;BME280;25696;42.646;23.368;2023-02-02T09:52:14;94507.13;;;6.84;56.69
39999;BME280;25696;42.646;23.368;2023-02-02T09:54:46;94507.44;;;6.89;56.33
39999;BME280;25696;42.646;23.368;2023-02-02T09:57:18;94514.63;;;7.32;54.35
39999;BME280;25696;42.646;23.368;2023-02-02T09:59:48;94511.84;;;7.41;54.07
39999;BME280;25696;42.646;23.368;2023-02-02T10:02:32;94477.47;;;7.80;53.67
39999;BME280;25696;42.646;23.368;2023-02-02T10:05:28;94493.00;;;7.84;52.62
39999;BME280;25696;42.646;23.368;2023-02-02T10:08:00;94490.25;;;7.27;54.14
39999;BME280;25696;42.646;23.368;2023-02-02T10:10:39;94491.47;;;7.10;54.67
39999;BME280;25696;42.646;23.368;2023-02-02T10:13:14;94503.16;;;7.39;55.14
39999;BME280;25696;42.646;23.368;2023-02-02T10:15:53;94502.38;;;7.74;53.49
39999;BME280;25696;42.646;23.368;2023-02-02T10:18:47;94487.53;;;8.13;51.27
39999;BME280;25696;42.646;23.368;2023-02-02T10:23:55;94485.06;;;8.54;48.65
39999;BME280;25696;42.646;23.368;2023-02-02T10:26:36;94472.47;;;8.82;48.46
39999;BME280;25696;42.646;23.368;2023-02-02T10:34:31;94466.78;;;9.73;43.75
39999;BME280;25696;42.646;23.368;2023-02-02T10:39:48;94455.16;;;10.73;42.03
39999;BME280;25696;42.646;23.368;2023-02-02T10:45:07;94430.44;;;12.23;39.88
39999;BME280;25696;42.646;23.368;2023-02-02T10:47:35;94431.13;;;12.43;38.16
39999;BME280;25696;42.646;23.368;2023-02-02T10:52:37;94408.75;;;12.61;36.49
39999;BME280;25696;42.646;23.368;2023-02-02T11:02:46;94394.56;;;12.09;36.60
39999;BME280;25696;42.646;23.368;2023-02-02T11:05:18;94390.94;;;11.97;37.37
39999;BME280;25696;42.646;23.368;2023-02-02T11:08:13;94379.88;;;12.05;36.78
39999;BME280;25696;42.646;23.368;2023-02-02T11:10:40;94387.69;;;11.82;36.13
39999;BME280;25696;42.646;23.368;2023-02-02T11:13:06;94381.31;;;11.70;36.75
39999;BME280;25696;42.646;23.368;2023-02-02T11:15:39;94368.41;;;11.79;36.93
39999;BME280;25696;42.646;23.368;2023-02-02T11:18:27;94367.22;;;11.68;36.52
39999;BME280;25696;42.646;23.368;2023-02-02T11:20:52;94358.53;;;11.53;36.08
39999;BME280;25696;42.646;23.368;2023-02-02T11:23:20;94363.91;;;11.66;36.41
39999;BME280;25696;42.646;23.368;2023-02-02T11:25:56;94363.03;;;11.72;36.51
39999;BME280;25696;42.646;23.368;2023-02-02T11:28:24;94356.22;;;11.70;36.18
39999;BME280;25696;42.646;23.368;2023-02-02T11:30:53;94346.44;;;11.75;36.50
39999;BME280;25696;42.646;23.368;2023-02-02T11:33:35;94359.97;;;11.69;35.79
39999;BME280;25696;42.646;23.368;2023-02-02T11:36:01;94338.97;;;11.77;35.61
39999;BME280;25696;42.646;23.368;2023-02-02T11:38:28;94345.59;;;11.75;35.70
39999;BME280;25696;42.646;23.368;2023-02-02T11:41:02;94340.91;;;11.95;35.03
39999;BME280;25696;42.646;23.368;2023-02-02T11:43:38;94322.19;;;11.62;35.48
39999;BME280;25696;42.646;23.368;2023-02-02T11:46:23;94329.25;;;11.63;35.36
39999;BME280;25696;42.646;23.368;2023-02-02T11:51:22;94318.28;;;11.58;36.07
39999;BME280;25696;42.646;23.368;2023-02-02T11:54:13;94323.25;;;11.61;35.81
39999;BME280;25696;42.646;23.368;2023-02-02T11:56:40;94312.06;;;11.58;36.63
39999;BME280;25696;42.646;23.368;2023-02-02T11:59:42;94313.31;;;11.55;35.60
39999;BME280;25696;42.646;23.368;2023-02-02T12:02:29;94307.72;;;11.57;36.48
39999;BME280;25696;42.646;23.368;2023-02-02T12:07:46;94314.88;;;11.38;35.59
39999;BME280;25696;42.646;23.368;2023-02-02T12:12:55;94304.56;;;11.66;35.65
39999;BME280;25696;42.646;23.368;2023-02-02T12:15:44;94302.06;;;11.71;35.54
39999;BME280;25696;42.646;23.368;2023-02-02T12:21:03;94300.75;;;11.80;35.96
39999;BME280;25696;42.646;23.368;2023-02-02T12:24:08;94296.41;;;12.04;35.53
39999;BME280;25696;42.646;23.368;2023-02-02T12:26:39;94296.91;;;11.94;35.08
39999;BME280;25696;42.646;23.368;2023-02-02T12:31:46;94315.97;;;11.68;36.61
39999;BME280;25696;42.646;23.368;2023-02-02T12:34:18;94313.31;;;11.55;36.32
39999;BME280;25696;42.646;23.368;2023-02-02T12:42:56;94312.47;;;11.23;36.62
39999;BME280;25696;42.646;23.368;2023-02-02T12:51:07;94309.53;;;10.68;36.54
39999;BME280;25696;42.646;23.368;2023-02-02T12:54:10;94319.31;;;10.36;36.78
39999;BME280;25696;42.646;23.368;2023-02-02T12:59:27;94315.97;;;10.08;37.91
39999;BME280;25696;42.646;23.368;2023-02-02T13:02:04;94322.44;;;10.20;38.57
39999;BME280;25696;42.646;23.368;2023-02-02T13:07:51;94318.25;;;10.04;38.84
39999;BME280;25696;42.646;23.368;2023-02-02T13:10:31;94314.13;;;10.02;38.39
39999;BME280;25696;42.646;23.368;2023-02-02T13:13:03;94324.69;;;10.03;38.54
39999;BME280;25696;42.646;23.368;2023-02-02T13:15:38;94324.66;;;10.10;38.05
39999;BME280;25696;42.646;23.368;2023-02-02T13:18:28;94317.88;;;10.07;38.15
39999;BME280;25696;42.646;23.368;2023-02-02T13:21:00;94302.34;;;10.03;38.35
39999;BME280;25696;42.646;23.368;2023-02-02T13:23:31;94315.81;;;10.35;38.03
39999;BME280;25696;42.646;23.368;2023-02-02T13:28:42;94318.72;;;10.27;38.06
39999;BME280;25696;42.646;23.368;2023-02-02T13:31:16;94306.88;;;10.55;38.24
39999;BME280;25696;42.646;23.368;2023-02-02T13:33:45;94303.13;;;10.56;37.56
39999;BME280;25696;42.646;23.368;2023-02-02T13:36:21;94306.44;;;10.58;38.10
39999;BME280;25696;42.646;23.368;2023-02-02T13:38:53;94304.81;;;10.43;38.04
39999;BME280;25696;42.646;23.368;2023-02-02T13:41:20;94286.41;;;10.40;36.85
39999;BME280;25696;42.646;23.368;2023-02-02T13:44:00;94297.56;;;9.98;37.24
39999;BME280;25696;42.646;23.368;2023-02-02T13:49:25;94309.78;;;9.81;38.24
39999;BME280;25696;42.646;23.368;2023-02-02T14:02:48;94308.72;;;9.69;39.15
39999;BME280;25696;42.646;23.368;2023-02-02T14:05:35;94311.66;;;10.00;38.60
39999;BME280;25696;42.646;23.368;2023-02-02T14:08:06;94300.50;;;10.03;39.08
39999;BME280;25696;42.646;23.368;2023-02-02T14:10:38;94310.59;;;10.08;40.34
39999;BME280;25696;42.646;23.368;2023-02-02T14:13:19;94314.13;;;10.08;41.35
39999;BME280;25696;42.646;23.368;2023-02-02T14:16:05;94304.00;;;10.23;42.50
39999;BME280;25696;42.646;23.368;2023-02-02T14:18:52;94296.78;;;10.17;43.08
39999;BME280;25696;42.646;23.368;2023-02-02T14:26:42;94284.53;;;9.69;43.25
39999;BME280;25696;42.646;23.368;2023-02-02T14:45:36;94348.69;;;8.37;48.92
39999;BME280;25696;42.646;23.368;2023-02-02T14:55:51;94430.63;;;7.40;65.87
39999;BME280;25696;42.646;23.368;2023-02-02T15:01:06;94464.06;;;6.05;75.84
39999;BME280;25696;42.646;23.368;2023-02-02T15:06:35;94494.59;;;4.79;81.70
39999;BME280;25696;42.646;23.368;2023-02-02T15:14:42;94510.69;;;4.07;86.41
39999;BME280;25696;42.646;23.368;2023-02-02T15:19:55;94546.50;;;4.13;88.75
39999;BME280;25696;42.646;23.368;2023-02-02T15:22:26;94540.16;;;4.05;87.42
39999;BME280;25696;42.646;23.368;2023-02-02T15:24:54;94566.78;;;3.89;87.35
39999;BME280;25696;42.646;23.368;2023-02-02T15:27:22;94579.91;;;3.75;88.58
39999;BME280;25696;42.646;23.368;2023-02-02T15:29:54;94574.78;;;3.89;88.44
39999;BME280;25696;42.646;23.368;2023-02-02T15:32:23;94581.13;;;3.88;88.08
39999;BME280;25696;42.646;23.368;2023-02-02T15:35:02;94572.59;;;3.85;87.61
39999;BME280;25696;42.646;23.368;2023-02-02T15:37:32;94585.94;;;3.85;87.50
39999;BME280;25696;42.646;23.368;2023-02-02T15:40:10;94592.13;;;4.01;88.27
39999;BME280;25696;42.646;23.368;2023-02-02T15:42:41;94590.00;;;4.13;88.41
39999;BME280;25696;42.646;23.368;2023-02-02T15:45:44;94581.31;;;4.11;87.11
39999;BME280;25696;42.646;23.368;2023-02-02T15:50:48;94595.28;;;3.97;86.32
39999;BME280;25696;42.646;23.368;2023-02-02T15:53:18;94604.44;;;3.86;86.92